Acton, Indiana
Current Conditions -  °F | °C
As of 10:53 AM on Friday 24 Oct 2014 (Local Time) from KGEZ Reporting Station
Overcast Overcast  
Wind Chill: 57°   Ceiling: 11000
Heat Index: 57°   Visibility: 10mi
Dew Point: 44°   Wind: 5mph
Humidity: 62%   Direction: 220°SW
Pressure: 30.11"   Gusts: NA
Location:  39.6613°N, 85.9949°W
Report Text: KGEZ 241453Z AUTO 22004KT 10SM OVC110 14/07 A3011 RMK AO2 SLP197 T01390067 50000
Loading
Personal Weather Stations






























Interactive Weather Map
Tropical Storm Tracking
New forecast layout! Learn more

10-Day Weather Forecast

Advertisements
Track Severe Weather on mobile